createdAt,value
2018-11-21T08:55:51.931Z,64.75
2018-11-21T08:58:20.402Z,64.09
2018-11-21T09:00:51.643Z,64.91
2018-11-21T09:03:23.060Z,65.28
2018-11-21T09:05:58.123Z,66.24
2018-11-21T09:08:26.672Z,67.75
2018-11-21T09:10:55.108Z,68.54
2018-11-21T09:13:27.942Z,69.03
2018-11-21T09:15:57.499Z,70.07
2018-11-21T09:18:28.464Z,69.91
2018-11-21T09:20:56.890Z,68.55
2018-11-21T09:23:25.442Z,68.82
2018-11-21T09:25:53.870Z,68.21
2018-11-21T09:28:22.329Z,67.70
2018-11-21T09:30:50.716Z,67.54
2018-11-21T09:33:20.185Z,67.87
2018-11-21T09:35:49.463Z,67.70
2018-11-21T09:38:17.998Z,66.76
2018-11-21T09:40:52.209Z,66.93
2018-11-21T09:43:24.120Z,67.37
2018-11-21T09:45:57.620Z,66.91
2018-11-21T09:48:26.471Z,66.23
2018-11-21T09:50:56.992Z,65.93
2018-11-21T09:53:29.726Z,65.14
2018-11-21T09:56:00.919Z,66.37
2018-11-21T09:58:29.339Z,66.12
2018-11-21T10:01:35.198Z,66.88
2018-11-21T10:04:03.296Z,65.84
2018-11-21T10:06:36.840Z,66.33
2018-11-21T10:09:19.240Z,65.90
2018-11-21T10:11:47.715Z,65.47
2018-11-21T10:14:22.357Z,65.89
2018-11-21T10:16:49.571Z,67.00
2018-11-21T10:19:18.464Z,67.58
2018-11-21T10:21:49.503Z,68.05
2018-11-21T10:24:17.995Z,68.24
2018-11-21T10:26:49.069Z,69.55
2018-11-21T10:29:17.598Z,69.69
2018-11-21T10:31:48.660Z,68.24
2018-11-21T10:34:17.463Z,68.33
2018-11-21T10:36:45.969Z,69.06
2018-11-21T10:39:14.400Z,69.93
2018-11-21T10:41:42.839Z,69.93
2018-11-21T10:44:13.459Z,68.17
2018-11-21T10:46:41.927Z,68.20
2018-11-21T10:49:10.497Z,68.33
2018-11-21T10:51:38.968Z,67.98
2018-11-21T10:54:09.359Z,68.20
2018-11-21T10:56:41.772Z,68.60
2018-11-21T10:59:10.330Z,68.75
2018-11-21T11:01:55.967Z,68.69
2018-11-21T11:04:43.497Z,69.38
2018-11-21T11:07:29.743Z,68.79
2018-11-21T11:10:35.232Z,68.99
2018-11-21T11:13:21.705Z,68.53
2018-11-21T11:16:10.626Z,68.24
2018-11-21T11:19:03.859Z,67.91
2018-11-21T11:21:51.383Z,68.04
2018-11-21T11:24:40.349Z,69.23
2018-11-21T11:27:26.860Z,68.33
2018-11-21T11:30:23.095Z,67.55
2018-11-21T11:33:11.011Z,66.59
2018-11-21T11:36:04.350Z,65.60
2018-11-21T11:38:57.642Z,67.40
2018-11-21T11:41:54.421Z,67.46
2018-11-21T11:44:47.696Z,68.81
2018-11-21T11:47:33.943Z,68.83
2018-11-21T11:50:31.298Z,69.11
2018-11-21T11:53:15.752Z,69.60
2018-11-21T11:56:02.317Z,68.83
2018-11-21T11:58:48.272Z,68.30
2018-11-21T12:01:52.699Z,68.41
2018-11-21T12:04:40.999Z,67.41
2018-11-21T12:07:28.506Z,67.51
2018-11-21T12:10:21.883Z,68.13
2018-11-21T12:13:11.170Z,68.75
2018-11-21T12:15:59.245Z,69.08
2018-11-21T12:18:52.016Z,69.03
2018-11-21T12:21:51.189Z,66.68
2018-11-21T12:24:53.538Z,65.99
2018-11-21T12:27:41.084Z,66.29
2018-11-21T12:30:30.835Z,66.43
2018-11-21T12:33:35.948Z,66.93
2018-11-21T12:36:28.278Z,66.34
2018-11-21T12:39:14.339Z,66.68
2018-11-21T12:42:00.455Z,66.58
2018-11-21T12:44:50.991Z,65.87
2018-11-21T12:47:40.961Z,64.69
2018-11-21T12:50:24.686Z,65.03
2018-11-21T12:53:14.179Z,65.23
2018-11-21T12:55:54.452Z,66.56
2018-11-21T12:58:41.374Z,67.50
2018-11-21T13:01:20.624Z,68.23
2018-11-21T13:04:09.603Z,68.02
2018-11-21T13:07:06.552Z,68.99
2018-11-21T13:09:56.933Z,68.19
2018-11-21T13:12:54.178Z,67.16
2018-11-21T13:15:35.767Z,67.26
2018-11-21T13:18:39.773Z,67.37
2018-11-21T13:21:34.870Z,66.89
2018-11-21T13:24:42.236Z,67.54
2018-11-21T13:27:31.855Z,67.18
2018-11-21T13:30:12.138Z,68.82
2018-11-21T13:33:17.485Z,68.00
2018-11-21T13:35:58.366Z,68.29
2018-11-21T13:38:52.313Z,67.90
2018-11-21T13:41:40.933Z,66.24
2018-11-21T13:44:37.038Z,65.74
2018-11-21T13:47:35.731Z,66.27
2018-11-21T13:50:25.093Z,66.71
2018-11-21T13:53:14.183Z,67.33
2018-11-21T13:55:44.972Z,66.60
2018-11-21T13:58:13.553Z,66.37
2018-11-21T14:00:42.126Z,66.79
2018-11-21T14:03:13.178Z,67.60
2018-11-21T14:05:44.483Z,67.03
2018-11-21T14:08:22.611Z,67.43
2018-11-21T14:10:54.453Z,67.40
2018-11-21T14:13:25.247Z,67.11
2018-11-21T14:15:53.854Z,65.96
2018-11-21T14:18:22.329Z,65.56
2018-11-21T14:20:55.850Z,66.60
2018-11-21T14:23:25.371Z,66.23
2018-11-21T14:25:56.341Z,65.67
2018-11-21T14:28:25.098Z,64.75
2018-11-21T14:30:53.710Z,65.01
2018-11-21T14:33:24.852Z,65.87
2018-11-21T14:35:56.176Z,66.31
2018-11-21T14:38:25.484Z,65.80
2018-11-21T14:41:04.799Z,66.29
2018-11-21T14:43:36.990Z,64.31
2018-11-21T14:46:10.494Z,64.71
2018-11-21T14:48:39.042Z,64.91
2018-11-21T14:51:07.518Z,65.24
2018-11-21T14:53:38.396Z,64.91
2018-11-21T14:56:07.682Z,65.06
2018-11-21T14:58:36.242Z,64.98
2018-11-21T15:01:04.574Z,64.78
2018-11-21T15:03:33.116Z,64.57
2018-11-21T15:06:01.711Z,65.66
2018-11-21T15:08:33.321Z,64.82
2018-11-21T15:11:04.366Z,65.51
2018-11-21T15:13:36.767Z,65.67
2018-11-21T15:16:05.229Z,65.04
2018-11-21T15:18:35.642Z,64.65
2018-11-21T15:21:16.268Z,65.91
2018-11-21T15:23:38.536Z,66.49
2018-11-21T15:26:08.772Z,66.76
2018-11-21T15:28:42.890Z,67.08
2018-11-21T15:31:11.344Z,66.29
2018-11-21T15:33:39.851Z,66.81
2018-11-21T15:36:08.408Z,66.85
2018-11-21T15:38:39.859Z,66.63
2018-11-21T15:41:08.303Z,66.08
2018-11-21T15:43:38.289Z,65.50
2018-11-21T15:46:08.030Z,65.51
2018-11-21T15:48:36.499Z,64.95
2018-11-21T15:51:05.192Z,66.01
2018-11-21T15:53:37.168Z,65.97
2018-11-21T15:56:06.795Z,66.99
2018-11-21T16:01:02.787Z,65.57
2018-11-21T16:03:33.950Z,65.40
2018-11-21T16:06:08.473Z,65.73
2018-11-21T16:08:37.006Z,65.64
2018-11-21T16:11:10.579Z,65.21
2018-11-21T16:13:39.624Z,65.96
2018-11-21T16:16:08.412Z,63.70
2018-11-21T16:18:36.865Z,63.75
2018-11-21T16:21:05.556Z,64.31
2018-11-21T16:23:34.495Z,65.07
2018-11-21T16:26:09.111Z,65.78
2018-11-21T16:28:41.732Z,65.79
2018-11-21T16:31:15.009Z,66.02
2018-11-21T16:33:40.809Z,66.87
2018-11-21T16:36:09.300Z,66.63
2018-11-21T16:38:40.736Z,67.17
2018-11-21T16:41:08.223Z,67.30
2018-11-21T16:43:37.047Z,66.90
2018-11-21T16:46:09.122Z,66.09
2018-11-21T16:48:37.507Z,65.31
2018-11-21T16:51:07.001Z,64.67
2018-11-21T16:53:36.691Z,64.84
2018-11-21T16:56:08.001Z,64.46
2018-11-21T16:58:36.439Z,63.84
2018-11-21T17:01:05.490Z,63.65
2018-11-21T17:03:37.542Z,64.63
2018-11-21T17:06:08.428Z,65.15
2018-11-21T17:08:41.819Z,64.73
2018-11-21T17:11:15.594Z,63.95
2018-11-21T17:13:46.668Z,64.32
2018-11-21T17:16:17.502Z,64.71
2018-11-21T17:18:45.969Z,64.76
2018-11-21T17:21:17.414Z,64.77
2018-11-21T17:23:50.481Z,64.20
2018-11-21T17:26:20.739Z,63.54
2018-11-21T17:28:50.689Z,64.17
2018-11-21T17:31:18.616Z,63.85
2018-11-21T17:33:52.099Z,63.22
2018-11-21T17:36:17.769Z,62.83
2018-11-21T17:38:48.358Z,62.64
2018-11-21T17:41:16.814Z,62.74
2018-11-21T17:43:47.334Z,62.73
2018-11-21T17:46:16.179Z,63.50
2018-11-21T17:48:44.637Z,63.71
2018-11-21T17:51:13.100Z,66.42
2018-11-21T17:53:41.587Z,63.17
2018-11-21T17:56:13.647Z,62.41
2018-11-21T17:58:44.189Z,62.70
2018-11-21T18:01:15.524Z,63.94
2018-11-21T18:03:42.083Z,64.55
2018-11-21T18:06:11.489Z,63.60
2018-11-21T18:08:42.120Z,62.84
2018-11-21T18:11:10.579Z,61.62
2018-11-21T18:13:40.472Z,62.17
2018-11-21T18:16:07.503Z,62.62
2018-11-21T18:18:39.637Z,61.94
2018-11-21T18:21:09.023Z,61.49
2018-11-21T18:23:37.496Z,62.21
2018-11-21T18:26:06.173Z,62.37
2018-11-21T18:28:34.633Z,62.73
2018-11-21T18:31:03.084Z,63.03
2018-11-21T18:33:31.519Z,63.26
2018-11-21T18:36:00.000Z,62.06
2018-11-21T18:38:30.877Z,62.00
2018-11-21T18:40:59.313Z,62.07
2018-11-21T18:43:31.241Z,62.04
2018-11-21T18:45:59.666Z,61.49
2018-11-21T18:48:28.116Z,61.77
2018-11-21T18:50:56.613Z,62.51
2018-11-21T18:53:25.169Z,62.88
2018-11-21T18:55:57.623Z,61.70
2018-11-21T18:59:05.766Z,61.87
2018-11-21T19:01:34.285Z,63.54
2018-11-21T19:04:05.805Z,60.74
2018-11-21T19:06:35.780Z,60.36
2018-11-21T19:09:02.989Z,60.42
2018-11-21T19:11:31.973Z,59.73
2018-11-21T19:14:00.455Z,59.91
2018-11-21T19:16:31.658Z,60.11
2018-11-21T19:19:00.176Z,60.30
2018-11-21T19:21:29.910Z,60.76
2018-11-21T19:23:58.824Z,60.23
2018-11-21T19:26:30.996Z,60.49
2018-11-21T19:28:59.843Z,60.98
2018-11-21T19:31:29.738Z,61.40
2018-11-21T19:33:57.230Z,61.77
2018-11-21T19:36:26.686Z,62.15
2018-11-21T19:38:55.952Z,62.28
2018-11-21T19:41:24.373Z,62.39
2018-11-21T19:43:54.014Z,62.10
2018-11-21T19:46:25.651Z,62.29
2018-11-21T19:48:55.215Z,62.99
2018-11-21T19:51:23.688Z,63.00
2018-11-21T19:53:52.143Z,62.76
2018-11-21T19:56:24.198Z,63.13
2018-11-21T19:58:51.143Z,63.75
2018-11-21T20:01:20.444Z,63.52
2018-11-21T20:03:48.980Z,63.71
2018-11-21T20:06:17.548Z,62.95
2018-11-21T20:08:46.129Z,63.25
2018-11-21T20:11:14.571Z,62.12
2018-11-21T20:13:44.004Z,62.12
2018-11-21T20:16:14.062Z,62.22
2018-11-21T20:18:47.132Z,61.96
2018-11-21T20:21:18.035Z,61.71
2018-11-21T20:23:46.541Z,61.73
2018-11-21T20:26:17.730Z,61.94
2018-11-21T20:28:47.221Z,61.74
2018-11-21T20:31:15.654Z,62.09
2018-11-21T20:33:44.099Z,61.90
2018-11-21T20:36:12.641Z,61.42
2018-11-21T20:38:41.126Z,60.84
2018-11-21T20:41:10.854Z,60.98
2018-11-21T20:43:38.244Z,61.17
2018-11-21T20:46:06.763Z,61.21
2018-11-21T20:48:35.238Z,61.22
2018-11-21T20:51:07.994Z,61.18
2018-11-21T20:53:36.451Z,61.38
2018-11-21T20:56:05.224Z,61.73
2018-11-21T20:58:33.988Z,60.79
2018-11-21T21:01:05.415Z,60.60
2018-11-21T21:03:34.844Z,60.24
2018-11-21T21:06:03.403Z,61.08
2018-11-21T21:08:31.896Z,59.38
2018-11-21T21:11:06.242Z,59.46
2018-11-21T21:13:34.681Z,60.65
2018-11-21T21:16:06.765Z,59.71
2018-11-21T21:18:41.391Z,59.66
2018-11-21T21:21:15.681Z,59.34
2018-11-21T21:23:39.540Z,59.34
2018-11-21T21:26:08.404Z,60.70
2018-11-21T21:28:36.807Z,60.18
2018-11-21T21:31:05.390Z,59.81
2018-11-21T21:33:33.802Z,59.51
2018-11-21T21:36:02.260Z,59.13
2018-11-21T21:38:30.677Z,59.59
2018-11-21T21:40:59.112Z,59.75
2018-11-21T21:43:27.647Z,58.02
2018-11-21T21:45:56.103Z,57.64
2018-11-21T21:48:24.530Z,59.56
2018-11-21T21:50:52.969Z,57.86
2018-11-21T21:53:23.908Z,58.55
2018-11-21T21:55:52.331Z,58.38
2018-11-21T21:58:20.765Z,58.16
2018-11-21T22:00:49.220Z,58.41
2018-11-21T22:03:19.463Z,58.99
2018-11-21T22:06:07.600Z,58.28
2018-11-21T22:08:36.029Z,58.81
2018-11-21T22:11:05.799Z,58.09
2018-11-21T22:13:35.165Z,58.79
2018-11-21T22:16:03.594Z,58.59
2018-11-21T22:18:33.103Z,59.39
2018-11-21T22:21:04.105Z,60.12
2018-11-21T22:23:32.573Z,59.99
2018-11-21T22:26:03.213Z,61.55
2018-11-21T22:28:32.182Z,59.61
2018-11-21T22:31:01.498Z,60.43
2018-11-21T22:33:30.057Z,61.23
2018-11-21T22:36:02.848Z,59.92
2018-11-21T22:38:32.748Z,59.86
2018-11-21T22:41:01.196Z,59.62
2018-11-21T22:43:31.797Z,60.58
2018-11-21T22:46:00.279Z,60.59
2018-11-21T22:48:29.643Z,59.49
2018-11-21T22:50:58.113Z,58.46
2018-11-21T22:53:31.506Z,59.38
2018-11-21T22:56:01.561Z,60.78
2018-11-21T22:58:31.218Z,61.53
2018-11-21T23:01:00.686Z,59.30
2018-11-21T23:03:31.589Z,61.53
2018-11-21T23:06:00.045Z,60.16
2018-11-21T23:08:29.486Z,60.21
2018-11-21T23:10:58.384Z,60.46
2018-11-21T23:13:26.851Z,60.71
2018-11-21T23:15:55.290Z,60.34
2018-11-21T23:18:23.739Z,59.20
2018-11-21T23:20:52.154Z,58.90
2018-11-21T23:23:20.728Z,58.55
2018-11-21T23:25:54.010Z,58.86
2018-11-21T23:28:26.281Z,58.21
2018-11-21T23:30:54.744Z,60.49
2018-11-21T23:33:25.516Z,61.47
2018-11-21T23:35:54.103Z,62.46
2018-11-21T23:38:22.556Z,62.21
2018-11-21T23:40:52.228Z,61.39
2018-11-21T23:43:20.382Z,60.87
2018-11-21T23:45:48.814Z,61.93
2018-11-21T23:48:19.083Z,60.90
2018-11-21T23:50:47.511Z,61.04
2018-11-21T23:53:15.956Z,61.10
2018-11-21T23:55:44.467Z,59.77
2018-11-21T23:58:22.318Z,58.93
